KLAN/LAN METAR and TAF weather

Enter ICAO airport designator
Station Type Date Time Source
KLAN METAR 2021/04/12 02:53 UTC NOAA

KLAN 120253Z 00000KT 10SM CLR 09/06 A2952 RMK AO2 SLP997 T00890061 53013 $


Station Type Date Time Source
KLAN Decoded METAR 2021/04/12 02:53 UTC NOAA

CAPITAL CITY AIRPORT, MI, United States (KLAN) 42-47N 084-35W 264M
Apr 11, 2021 - 10:53 PM EDT / 2021.04.12 0253 UTC
Wind: Calm:0
Visibility: 10 mile(s):0
Sky conditions: clear
Temperature: 48.0 F (8.9 C)
Dew Point: 43.0 F (6.1 C)
Relative Humidity: 82%
Pressure (altimeter): 29.52 in. Hg (999 hPa)
Pressure tendency: 0.04 inches (1.3 hPa) higher than three hours ago
ob: KLAN 120253Z 00000KT 10SM CLR 09/06 A2952 RMK AO2 SLP997 T00890061 53013
cycle: 3

Station Type Date Time Source
KLAN TAF 2021/04/11 18:42 UTC NOAA

TAF KLAN 111740Z 1118/1218 17010KT P6SM VCSH BKN035
FM120000 VRB04KT 5SM BR BKN025
FM121300 27008KT P6SM BKN025

Example: see airport list